Terminal Aerodrome Forecast
Issued by NWS

Home | Current Version | Previous Version | Graphics & Text | Print | Product List | Glossary On
Versions: 1 2 3 4 5 6 7 8 9 10 11 12 13 14 15 16 17 18
052
FTUS43 KIWX 171723
TAFSBN
TAF
KSBN 171723Z 1718/1818 16013G22KT P6SM BKN250
     FM180000 17012G22KT P6SM VCSH OVC150 WS020/20045KT
     FM180200 18014G23KT 4SM RA OVC020 WS020/20060KT
      TEMPO 1804/1808 2SM RA OVC008
     FM180800 22009KT 2SM RA OVC008
     FM181300 25006KT 1SM RA OVC003=

USA.gov is the U.S. government's official web portal to all federal, state and local government web resources and services.